Time;durP1;ratioP1;P1;durP2;ratioP2;P2;SDS_P1;SDS_P2;PMS_P1;PMS_P2;Temp;Humidity;BMP_temperature;BMP_pressure;BME280_temperature;BME280_humidity;BME280_pressure;Samples;Min_cycle;Max_cycle;Signal;HPM_P1;HPM_P2
2022/05/19 00:02:15;;;;;;;12.88;3.90;;;9.10;99.90;;;;;;4966937;28;20050;-80
2022/05/19 00:04:44;;;;;;;13.13;4.80;;;9.10;99.90;;;;;;4966184;28;20051;-80
2022/05/19 00:07:13;;;;;;;13.40;4.43;;;9.10;99.90;;;;;;4973850;28;20054;-80
2022/05/19 00:09:41;;;;;;;13.18;4.80;;;9.10;99.90;;;;;;4959829;28;20079;-80
2022/05/19 00:12:12;;;;;;;10.30;4.53;;;9.10;99.90;;;;;;4951360;28;20053;-79
2022/05/19 00:14:40;;;;;;;9.65;4.72;;;9.10;99.90;;;;;;4970888;28;20050;-80
2022/05/19 00:17:07;;;;;;;14.05;4.65;;;9.10;99.90;;;;;;4967196;28;20511;-80
2022/05/19 00:19:36;;;;;;;11.85;5.05;;;9.10;99.90;;;;;;4973144;28;20069;-79
2022/05/19 00:22:04;;;;;;;11.05;4.75;;;9.10;99.90;;;;;;4963245;28;20051;-80
2022/05/19 00:24:31;;;;;;;13.10;5.05;;;9.10;99.90;;;;;;4951600;28;20507;-80
2022/05/19 00:26:59;;;;;;;17.05;4.43;;;9.10;99.90;;;;;;4960805;28;20042;-80
2022/05/19 00:29:28;;;;;;;10.93;4.70;;;9.10;99.90;;;;;;4972331;28;20459;-79
2022/05/19 00:31:55;;;;;;;11.98;4.30;;;9.10;99.90;;;;;;4960558;28;20629;-79
2022/05/19 00:34:23;;;;;;;14.10;4.75;;;9.10;99.90;;;;;;4961200;28;20065;-79
2022/05/19 00:36:57;;;;;;;12.82;3.83;;;9.00;99.90;;;;;;4955719;28;20047;-79
2022/05/19 00:39:24;;;;;;;11.98;4.50;;;9.00;99.90;;;;;;4970248;28;20146;-80
2022/05/19 00:42:43;;;;;;;12.43;4.63;;;9.00;99.90;;;;;;4962815;28;20047;-80
2022/05/19 00:44:39;;;;;;;11.20;4.93;;;9.00;99.90;;;;;;4956182;28;20051;-81
2022/05/19 00:47:12;;;;;;;15.32;5.65;;;9.00;99.90;;;;;;4955581;28;20047;-82
2022/05/19 00:49:41;;;;;;;;;;;8.90;99.90;;;;;;4961597;28;20050;-79
2022/05/19 00:52:12;;;;;;;11.40;5.07;;;8.90;99.90;;;;;;4950591;28;19933;-80
2022/05/19 00:54:44;;;;;;;10.98;4.55;;;8.80;99.90;;;;;;4962548;28;20137;-80
2022/05/19 00:57:15;;;;;;;14.63;4.80;;;8.80;99.90;;;;;;4972057;28;20050;-79
2022/05/19 00:59:49;;;;;;;14.57;5.00;;;8.80;99.90;;;;;;4967059;28;20527;-79
2022/05/19 01:02:22;;;;;;;12.35;4.60;;;8.80;99.90;;;;;;4964793;28;20078;-80
2022/05/19 01:04:54;;;;;;;12.18;4.47;;;8.70;99.90;;;;;;4950974;28;20115;-79
2022/05/19 01:07:28;;;;;;;11.68;5.05;;;8.70;99.90;;;;;;4968621;28;20117;-79
2022/05/19 01:09:58;;;;;;;10.32;4.82;;;8.70;99.90;;;;;;4952516;28;20058;-79
2022/05/19 01:12:26;;;;;;;13.95;4.50;;;8.60;99.90;;;;;;4935413;29;20220;-78
2022/05/19 01:14:53;;;;;;;12.93;5.40;;;8.60;99.90;;;;;;4935543;29;20051;-79
2022/05/19 01:17:21;;;;;;;15.73;4.50;;;8.60;99.90;;;;;;4954091;28;20079;-79
2022/05/19 01:19:54;;;;;;;18.83;5.95;;;8.50;99.90;;;;;;4955761;28;20063;-79
2022/05/19 01:22:30;;;;;;;16.33;5.60;;;8.50;99.90;;;;;;4961226;28;20315;-79
2022/05/19 01:25:05;;;;;;;9.90;4.55;;;8.50;99.90;;;;;;4970831;28;20050;-79
2022/05/19 01:27:34;;;;;;;11.75;4.82;;;8.40;99.90;;;;;;4955631;28;20063;-79
2022/05/19 01:30:03;;;;;;;11.75;4.65;;;8.40;99.90;;;;;;4956212;28;20146;-79
2022/05/19 01:32:31;;;;;;;13.60;5.60;;;8.40;99.90;;;;;;4953468;28;20050;-78
2022/05/19 01:35:00;;;;;;;11.98;5.82;;;8.40;99.90;;;;;;4963550;28;20046;-81
2022/05/19 01:37:28;;;;;;;13.93;5.00;;;8.40;99.90;;;;;;4952272;28;20088;-83
2022/05/19 01:40:08;;;;;;;15.32;4.82;;;8.40;99.90;;;;;;4965298;28;20051;-81
2022/05/19 01:42:50;;;;;;;14.60;5.03;;;8.40;99.90;;;;;;4956597;28;20052;-82
2022/05/19 01:45:30;;;;;;;14.17;4.73;;;8.40;99.90;;;;;;4965660;28;20161;-82
2022/05/19 01:48:02;;;;;;;8.43;4.28;;;8.50;99.90;;;;;;4973439;28;20061;-83
2022/05/19 01:50:38;;;;;;;15.57;4.50;;;8.50;99.90;;;;;;4986916;28;20077;-81
2022/05/19 01:53:11;;;;;;;15.13;5.53;;;8.50;99.90;;;;;;4971063;28;20051;-81
2022/05/19 01:55:42;;;;;;;;;;;8.50;99.90;;;;;;4941661;28;20158;-80
2022/05/19 01:58:16;;;;;;;12.63;5.35;;;8.50;99.90;;;;;;4967617;28;19976;-81
2022/05/19 02:00:45;;;;;;;13.07;4.85;;;8.60;99.90;;;;;;4975491;28;20059;-80
2022/05/19 02:03:19;;;;;;;15.70;5.50;;;8.60;99.90;;;;;;4958540;28;20472;-82
2022/05/19 02:05:55;;;;;;;12.02;4.82;;;8.60;99.90;;;;;;4952849;28;20507;-81
2022/05/19 02:08:27;;;;;;;12.00;4.32;;;8.70;99.90;;;;;;4955157;28;20066;-82
2022/05/19 02:10:57;;;;;;;11.50;3.90;;;8.70;99.90;;;;;;4944625;29;20051;-82
2022/05/19 02:13:26;;;;;;;14.13;4.30;;;8.80;99.90;;;;;;4964584;28;20413;-82
2022/05/19 02:15:54;;;;;;;10.27;4.05;;;8.80;99.90;;;;;;4962674;28;20061;-83
2022/05/19 02:18:25;;;;;;;14.68;4.18;;;8.80;99.90;;;;;;4949427;29;20393;-81
2022/05/19 02:20:54;;;;;;;11.02;4.45;;;8.90;99.90;;;;;;4954992;28;20055;-80
2022/05/19 02:23:22;;;;;;;16.38;4.40;;;8.90;99.90;;;;;;4950943;29;20107;-80
2022/05/19 02:25:52;;;;;;;11.50;3.80;;;8.90;99.90;;;;;;4983167;28;20046;-81
2022/05/19 02:28:26;;;;;;;12.50;4.30;;;8.90;99.90;;;;;;4955943;28;20055;-80
2022/05/19 02:30:55;;;;;;;14.68;5.28;;;8.90;99.90;;;;;;4969011;28;20047;-79
2022/05/19 02:33:23;;;;;;;10.30;4.55;;;9.00;99.90;;;;;;4957690;28;20422;-80
2022/05/19 02:35:51;;;;;;;11.43;4.60;;;9.00;99.90;;;;;;4963600;28;20523;-80
2022/05/19 02:38:20;;;;;;;11.05;4.53;;;9.00;99.90;;;;;;4955742;28;20079;-80
2022/05/19 02:40:48;;;;;;;15.00;4.40;;;9.00;99.90;;;;;;4940294;28;20051;-80
2022/05/19 02:43:19;;;;;;;12.60;4.65;;;9.10;99.90;;;;;;4967005;28;20047;-81
2022/05/19 02:45:50;;;;;;;16.33;5.15;;;9.10;99.90;;;;;;4980356;28;20463;-81
2022/05/19 02:48:21;;;;;;;9.88;4.35;;;9.20;99.90;;;;;;4968469;28;20051;-82
2022/05/19 02:50:50;;;;;;;13.73;5.22;;;9.20;99.90;;;;;;4963713;28;20254;-78
2022/05/19 02:53:18;;;;;;;12.20;4.95;;;9.20;99.90;;;;;;4953769;28;20142;-80
2022/05/19 02:55:46;;;;;;;14.43;4.97;;;9.20;99.90;;;;;;4985400;28;20149;-80
2022/05/19 02:58:15;;;;;;;9.10;4.95;;;9.20;99.90;;;;;;4966019;28;20582;-82
2022/05/19 03:00:46;;;;;;;11.82;4.32;;;9.30;99.90;;;;;;4957574;28;20067;-81
2022/05/19 03:03:14;;;;;;;11.73;4.85;;;9.20;99.90;;;;;;4954559;28;20055;-82
2022/05/19 03:05:43;;;;;;;12.52;5.05;;;9.30;99.90;;;;;;4965577;28;20082;-82
2022/05/19 03:08:10;;;;;;;15.07;4.82;;;9.30;99.90;;;;;;4961902;28;20066;-80
2022/05/19 03:10:40;;;;;;;11.35;4.95;;;9.30;99.90;;;;;;4955987;28;20051;-80
2022/05/19 03:13:16;;;;;;;11.75;5.22;;;9.40;99.90;;;;;;4964040;28;20146;-80
2022/05/19 03:15:45;;;;;;;13.20;5.18;;;9.50;99.90;;;;;;4954887;28;20051;-79
2022/05/19 03:18:13;;;;;;;18.40;5.88;;;9.50;99.90;;;;;;4957683;28;20043;-81
2022/05/19 03:20:42;;;;;;;15.38;4.90;;;9.50;99.90;;;;;;4953747;28;20537;-82
2022/05/19 03:23:09;;;;;;;14.38;6.32;;;9.50;99.90;;;;;;4952091;28;20051;-83
2022/05/19 03:25:36;;;;;;;11.98;6.18;;;9.50;99.90;;;;;;4941712;29;20053;-83
2022/05/19 03:28:04;;;;;;;11.90;5.43;;;9.60;99.90;;;;;;4962037;28;20511;-81
2022/05/19 03:30:33;;;;;;;15.88;6.13;;;9.60;99.90;;;;;;4967880;28;20059;-83
2022/05/19 03:33:00;;;;;;;14.73;6.20;;;9.60;99.90;;;;;;4952361;29;20085;-80
2022/05/19 03:35:29;;;;;;;12.20;6.38;;;9.70;99.90;;;;;;4958483;28;20090;-80
2022/05/19 03:37:58;;;;;;;15.57;6.80;;;9.80;99.90;;;;;;4965811;28;20141;-83
2022/05/19 03:40:26;;;;;;;17.02;6.75;;;10.00;99.90;;;;;;4961784;28;20619;-81
2022/05/19 03:42:53;;;;;;;12.27;6.15;;;10.00;99.90;;;;;;4970602;28;20471;-81
2022/05/19 03:45:21;;;;;;;18.20;7.13;;;10.20;99.90;;;;;;4974015;28;20369;-82
2022/05/19 03:47:48;;;;;;;12.43;6.55;;;10.20;99.90;;;;;;4957008;28;20138;-85
2022/05/19 03:50:15;;;;;;;16.75;7.15;;;10.30;99.90;;;;;;4969850;28;20043;-80
2022/05/19 03:52:44;;;;;;;15.48;6.25;;;10.40;99.90;;;;;;4971867;28;20411;-79
2022/05/19 03:55:14;;;;;;;15.23;6.35;;;10.40;99.90;;;;;;4954919;28;20134;-79
2022/05/19 03:57:42;;;;;;;21.63;6.32;;;10.50;99.90;;;;;;4952439;28;20094;-78
2022/05/19 04:00:11;;;;;;;11.48;6.10;;;10.50;99.90;;;;;;4952497;28;20445;-79
2022/05/19 04:02:41;;;;;;;14.00;6.15;;;10.60;99.90;;;;;;4956655;28;20566;-79
2022/05/19 04:05:13;;;;;;;13.90;6.10;;;10.60;99.90;;;;;;4952898;28;20537;-79
2022/05/19 04:07:41;;;;;;;12.63;6.07;;;10.70;99.90;;;;;;4960674;28;20530;-79
2022/05/19 04:10:14;;;;;;;9.63;5.43;;;10.70;99.90;;;;;;4954318;28;20065;-79
2022/05/19 04:12:43;;;;;;;16.20;5.10;;;10.70;99.90;;;;;;4953032;28;20146;-78
2022/05/19 04:15:12;;;;;;;10.15;4.53;;;10.80;99.90;;;;;;4948629;28;20043;-80
2022/05/19 04:17:45;;;;;;;7.60;4.35;;;10.80;99.90;;;;;;4976780;28;20051;-78
2022/05/19 04:20:12;;;;;;;11.02;4.15;;;10.80;99.90;;;;;;4972572;28;20042;-79
2022/05/19 04:22:40;;;;;;;7.90;4.18;;;10.90;99.90;;;;;;4970505;28;20102;-81
2022/05/19 04:25:09;;;;;;;9.43;4.32;;;10.90;99.90;;;;;;4952179;28;20074;-80
2022/05/19 04:27:36;;;;;;;13.50;4.80;;;10.90;99.90;;;;;;4969556;28;20047;-79
2022/05/19 04:30:06;;;;;;;9.80;4.50;;;11.00;99.90;;;;;;4955368;28;20141;-80
2022/05/19 04:32:34;;;;;;;6.10;3.20;;;11.00;99.90;;;;;;4965313;28;20055;-79
2022/05/19 04:35:02;;;;;;;10.20;3.53;;;11.00;99.90;;;;;;4972519;28;20043;-80
2022/05/19 04:37:30;;;;;;;6.15;2.42;;;11.00;99.90;;;;;;4972446;28;20076;-79
2022/05/19 04:40:01;;;;;;;5.53;2.83;;;10.90;99.90;;;;;;4949382;28;20199;-79
2022/05/19 04:42:30;;;;;;;4.93;2.67;;;10.90;99.90;;;;;;4958979;28;20421;-79
2022/05/19 04:44:58;;;;;;;9.48;2.75;;;10.90;99.90;;;;;;4966118;28;20121;-78
2022/05/19 04:47:27;;;;;;;4.65;2.80;;;10.90;99.90;;;;;;4961742;28;20086;-78
2022/05/19 04:49:54;;;;;;;3.03;2.47;;;10.90;99.90;;;;;;4960943;28;20154;-78
2022/05/19 04:52:22;;;;;;;3.88;2.17;;;10.90;99.90;;;;;;4962277;28;20058;-78
2022/05/19 04:54:51;;;;;;;3.58;2.40;;;10.90;99.90;;;;;;4955455;28;20055;-78
2022/05/19 04:57:21;;;;;;;3.75;2.20;;;10.80;99.90;;;;;;4950044;28;20503;-77
2022/05/19 04:59:48;;;;;;;5.93;2.78;;;10.80;99.90;;;;;;4952868;28;20071;-76
2022/05/19 05:02:16;;;;;;;5.00;2.67;;;10.70;99.90;;;;;;4953071;28;20539;-77
2022/05/19 05:04:44;;;;;;;3.60;2.40;;;10.60;99.90;;;;;;4962451;28;20150;-80
2022/05/19 05:07:12;;;;;;;3.10;2.45;;;10.60;99.90;;;;;;4958172;28;20510;-77
2022/05/19 05:09:39;;;;;;;4.72;2.40;;;10.60;99.90;;;;;;4961679;28;20043;-78
2022/05/19 05:12:08;;;;;;;2.38;2.05;;;10.50;99.90;;;;;;4953139;28;20154;-79
2022/05/19 05:14:35;;;;;;;2.90;2.10;;;10.50;99.90;;;;;;4960997;28;20050;-76
2022/05/19 05:17:03;;;;;;;2.15;2.00;;;10.50;99.90;;;;;;4949823;28;20090;-75
2022/05/19 05:19:30;;;;;;;2.25;2.05;;;10.40;99.90;;;;;;4950340;28;20085;-76
2022/05/19 05:22:02;;;;;;;2.30;1.80;;;10.40;99.90;;;;;;4959283;28;20459;-76
2022/05/19 05:24:30;;;;;;;4.25;1.83;;;10.40;99.90;;;;;;4959150;28;20051;-77
2022/05/19 05:26:57;;;;;;;2.58;2.15;;;10.40;99.90;;;;;;4949086;28;20151;-77
2022/05/19 05:29:24;;;;;;;7.13;2.83;;;10.40;99.90;;;;;;4948908;28;20055;-77
2022/05/19 05:31:52;;;;;;;7.80;2.72;;;10.50;99.90;;;;;;4950685;28;20094;-77
2022/05/19 05:34:19;;;;;;;2.22;1.50;;;10.50;99.90;;;;;;4961519;28;20035;-77
2022/05/19 05:36:46;;;;;;;4.03;2.08;;;10.60;99.90;;;;;;4954564;28;20412;-78
2022/05/19 05:39:15;;;;;;;2.88;1.90;;;10.70;99.90;;;;;;4955332;28;20058;-77
2022/05/19 05:41:42;;;;;;;4.45;1.60;;;10.70;99.90;;;;;;4952778;28;20078;-77
2022/05/19 05:44:09;;;;;;;5.78;2.72;;;10.80;99.90;;;;;;4951888;28;20054;-77
2022/05/19 05:46:38;;;;;;;3.08;1.77;;;10.80;99.90;;;;;;4943373;28;20137;-77
2022/05/19 05:49:06;;;;;;;3.03;1.30;;;10.80;99.90;;;;;;4971987;28;20511;-77
2022/05/19 05:51:34;;;;;;;9.50;1.92;;;10.80;99.90;;;;;;4967073;28;20046;-77
2022/05/19 05:54:02;;;;;;;3.17;1.63;;;10.90;99.90;;;;;;4967425;28;20118;-76
2022/05/19 05:56:54;;;;;;;2.25;1.30;;;10.90;99.90;;;;;;4969754;28;20043;-76
2022/05/19 05:59:30;;;;;;;3.05;1.40;;;10.90;99.90;;;;;;4972427;28;20054;-76
2022/05/19 06:01:57;;;;;;;3.60;1.67;;;11.00;99.90;;;;;;4963407;28;20503;-77
2022/05/19 06:04:24;;;;;;;3.17;1.83;;;11.00;99.90;;;;;;4963398;28;20101;-77
2022/05/19 06:06:51;;;;;;;2.40;1.90;;;11.00;99.90;;;;;;4961107;28;20480;-77
2022/05/19 06:09:21;;;;;;;1.70;1.58;;;11.00;99.90;;;;;;4934845;28;20098;-76
2022/05/19 06:11:51;;;;;;;2.70;1.30;;;11.00;99.90;;;;;;4965476;28;20649;-77
2022/05/19 06:14:19;;;;;;;3.58;1.27;;;10.90;99.90;;;;;;4970446;28;20142;-76
2022/05/19 06:16:46;;;;;;;3.63;1.38;;;10.90;99.90;;;;;;4965956;28;20046;-77
2022/05/19 06:19:13;;;;;;;3.08;1.35;;;11.00;99.90;;;;;;4965096;28;20161;-78
2022/05/19 06:21:41;;;;;;;2.80;1.52;;;11.00;99.90;;;;;;4965677;28;20043;-77
2022/05/19 06:24:09;;;;;;;4.50;1.90;;;11.00;99.90;;;;;;4965250;28;20125;-76
2022/05/19 06:26:38;;;;;;;3.35;2.00;;;11.10;99.90;;;;;;4959396;28;20047;-77
2022/05/19 06:29:07;;;;;;;4.55;2.05;;;11.20;99.90;;;;;;4962596;28;20057;-78
2022/05/19 06:31:34;;;;;;;1.98;1.60;;;11.30;99.90;;;;;;4965002;28;20515;-77
2022/05/19 06:34:02;;;;;;;4.75;1.90;;;11.40;99.90;;;;;;4967979;28;20105;-76
2022/05/19 06:36:29;;;;;;;2.25;1.60;;;11.50;99.90;;;;;;4970421;28;20134;-77
2022/05/19 06:38:56;;;;;;;7.68;2.47;;;11.60;99.90;;;;;;4968790;28;20051;-77
2022/05/19 06:44:10;;;;;;;4.22;1.20;;;11.70;99.90;;;;;;4969187;28;20057;-76
2022/05/19 06:46:38;;;;;;;2.38;1.15;;;11.80;99.90;;;;;;4964946;28;20539;-77
2022/05/19 06:49:05;;;;;;;2.83;1.30;;;11.90;99.90;;;;;;4967924;28;20081;-77
2022/05/19 06:51:34;;;;;;;1.88;1.08;;;12.00;99.90;;;;;;4969082;28;20154;-78
2022/05/19 06:54:01;;;;;;;2.10;1.45;;;12.20;99.90;;;;;;4969918;28;20054;-79
2022/05/19 06:56:28;;;;;;;1.85;1.50;;;12.30;99.90;;;;;;4968866;28;20511;-78
2022/05/19 06:58:56;;;;;;;3.10;1.48;;;12.40;99.90;;;;;;4969315;28;20051;-78
2022/05/19 07:01:24;;;;;;;3.22;1.73;;;12.60;99.90;;;;;;4970650;28;20042;-78
2022/05/19 07:03:52;;;;;;;3.80;1.40;;;12.70;99.90;;;;;;4972034;28;20043;-77
2022/05/19 07:06:21;;;;;;;4.63;1.55;;;12.80;99.90;;;;;;4966821;28;20043;-78
2022/05/19 07:08:48;;;;;;;2.72;1.20;;;12.90;99.90;;;;;;4970038;28;20147;-78
2022/05/19 07:11:28;;;;;;;1.80;1.50;;;13.10;99.90;;;;;;4970047;28;20119;-78
2022/05/19 07:13:57;;;;;;;1.70;1.30;;;13.20;99.90;;;;;;4973729;28;20082;-78
2022/05/19 07:16:26;;;;;;;1.60;1.05;;;13.30;99.90;;;;;;4964210;28;20043;-78
2022/05/19 07:20:43;;;;;;;0.95;0.80;;;13.30;99.90;;;;;;4980209;28;20086;-78
2022/05/19 07:21:42;;;;;;;1.23;1.10;;;13.20;99.90;;;;;;4964342;28;20051;-78
2022/05/19 07:24:15;;;;;;;2.00;1.27;;;13.20;99.90;;;;;;4961621;28;20062;-77
2022/05/19 07:26:43;;;;;;;1.33;0.90;;;13.10;99.90;;;;;;4970883;28;20089;-79
2022/05/19 07:29:11;;;;;;;1.80;0.98;;;13.00;99.90;;;;;;4973465;28;20507;-77
2022/05/19 07:31:40;;;;;;;0.75;0.75;;;13.00;99.90;;;;;;4971226;28;20047;-77
2022/05/19 07:34:08;;;;;;;1.80;1.17;;;12.90;99.90;;;;;;4960297;28;20079;-78
2022/05/19 07:36:36;;;;;;;1.65;1.25;;;12.90;99.90;;;;;;4962863;28;20069;-78
2022/05/19 07:39:03;;;;;;;3.80;1.70;;;12.90;99.90;;;;;;4959897;28;20061;-78
2022/05/19 07:41:32;;;;;;;2.30;1.90;;;12.90;99.90;;;;;;4953264;28;20043;-79
2022/05/19 07:44:00;;;;;;;2.13;1.50;;;12.90;99.90;;;;;;4961862;28;20047;-78
2022/05/19 07:46:27;;;;;;;4.10;1.73;;;13.00;99.90;;;;;;4970281;28;20074;-78
2022/05/19 07:48:58;;;;;;;3.38;1.52;;;13.00;99.90;;;;;;4971466;28;20058;-78
2022/05/19 07:51:27;;;;;;;3.33;1.63;;;13.00;99.90;;;;;;4964773;28;20125;-78
2022/05/19 07:53:55;;;;;;;8.40;2.15;;;13.00;99.90;;;;;;4960360;28;20142;-77
2022/05/19 07:56:23;;;;;;;3.17;1.75;;;13.10;99.90;;;;;;4969878;28;20133;-77
2022/05/19 07:58:51;;;;;;;4.82;2.95;;;13.10;99.90;;;;;;4955160;28;20141;-76
2022/05/19 08:01:18;;;;;;;4.43;2.30;;;13.10;99.90;;;;;;4967443;28;20038;-76
2022/05/19 08:03:45;;;;;;;2.65;2.20;;;13.20;99.90;;;;;;4962826;28;20047;-77
2022/05/19 08:06:14;;;;;;;5.32;1.65;;;13.40;99.90;;;;;;4958367;28;20150;-77
2022/05/19 08:08:43;;;;;;;5.07;2.10;;;13.50;99.90;;;;;;4956864;28;20587;-77
2022/05/19 08:11:11;;;;;;;4.85;2.03;;;13.70;99.90;;;;;;4947611;28;20614;-77
2022/05/19 08:16:23;;;;;;;6.63;1.98;;;13.90;99.90;;;;;;4969520;28;20054;-78
2022/05/19 08:18:51;;;;;;;6.45;2.53;;;14.10;99.90;;;;;;4967236;28;20038;-80
2022/05/19 08:21:19;;;;;;;16.10;3.20;;;14.10;99.90;;;;;;4960777;28;20062;-78
2022/05/19 08:23:50;;;;;;;5.25;2.22;;;14.10;99.90;;;;;;4965477;28;20061;-76
2022/05/19 08:26:18;;;;;;;7.03;1.98;;;14.20;99.90;;;;;;4947704;28;20057;-78
2022/05/19 08:28:48;;;;;;;3.38;1.63;;;14.10;99.90;;;;;;4959927;28;20055;-79
2022/05/19 08:31:18;;;;;;;3.30;1.60;;;14.10;99.90;;;;;;4955218;28;20508;-80
2022/05/19 08:33:46;;;;;;;7.53;1.80;;;14.10;99.90;;;;;;4950218;29;20122;-77
2022/05/19 08:36:14;;;;;;;3.58;1.63;;;14.10;99.90;;;;;;4964024;28;20427;-81
2022/05/19 08:38:43;;;;;;;2.30;1.63;;;14.10;99.90;;;;;;4967590;28;20039;-78
2022/05/19 08:41:18;;;;;;;4.35;1.65;;;14.10;99.90;;;;;;4966030;28;20042;-80
2022/05/19 08:43:49;;;;;;;2.75;1.70;;;14.10;99.90;;;;;;4967514;28;20070;-77
2022/05/19 08:46:21;;;;;;;4.25;2.10;;;14.20;99.90;;;;;;4953925;28;20050;-78
2022/05/19 08:48:52;;;;;;;5.85;2.00;;;14.20;99.90;;;;;;4968358;28;20067;-78
2022/05/19 08:51:24;;;;;;;4.38;2.28;;;14.10;99.90;;;;;;4969297;28;20142;-79
2022/05/19 08:53:58;;;;;;;6.75;2.30;;;14.00;99.90;;;;;;4968330;28;20430;-80
2022/05/19 08:56:31;;;;;;;2.22;1.75;;;14.00;99.90;;;;;;4968618;28;20048;-79
2022/05/19 08:59:06;;;;;;;;;;;14.00;99.90;;;;;;4969466;28;20582;-79
2022/05/19 09:01:42;;;;;;;3.60;1.80;;;14.10;99.90;;;;;;4967082;28;20043;-77
2022/05/19 09:04:29;;;;;;;1.60;1.48;;;14.20;99.90;;;;;;4968802;28;20066;-78
2022/05/19 09:10:28;;;;;;;3.25;1.58;;;14.40;99.90;;;;;;4966701;28;20046;-78
2022/05/19 09:13:02;;;;;;;3.50;2.13;;;14.80;99.90;;;;;;4970358;28;20054;-79
2022/05/19 09:15:29;;;;;;;2.97;1.75;;;15.50;99.90;;;;;;4965493;28;20058;-77
2022/05/19 09:17:57;;;;;;;5.90;1.70;;;16.00;99.90;;;;;;4966575;28;20520;-75
2022/05/19 09:20:31;;;;;;;4.63;2.15;;;16.60;99.90;;;;;;4968424;28;20113;-78
2022/05/19 09:23:01;;;;;;;4.07;1.42;;;17.40;99.60;;;;;;4969455;28;20046;-77
2022/05/19 09:25:31;;;;;;;2.63;1.33;;;19.00;93.60;;;;;;4965548;28;20109;-80
2022/05/19 09:28:01;;;;;;;3.05;1.30;;;20.20;75.60;;;;;;4967115;28;20055;-79
2022/05/19 09:30:36;;;;;;;3.22;1.02;;;20.30;70.30;;;;;;4967135;28;20047;-78
2022/05/19 09:33:08;;;;;;;3.08;1.20;;;20.00;70.00;;;;;;4970281;28;20121;-79
2022/05/19 09:35:39;;;;;;;4.73;1.37;;;19.20;69.40;;;;;;4949236;28;20070;-78
2022/05/19 09:38:12;;;;;;;4.30;1.52;;;18.10;71.20;;;;;;4949298;28;20062;-79
2022/05/19 09:40:47;;;;;;;3.15;1.38;;;17.30;77.30;;;;;;4966924;28;20061;-81
2022/05/19 09:43:21;;;;;;;3.97;1.83;;;16.60;85.10;;;;;;4966334;28;20062;-80
2022/05/19 09:45:53;;;;;;;1.48;1.20;;;15.90;91.70;;;;;;4966793;28;20393;-79
2022/05/19 09:48:27;;;;;;;1.50;0.88;;;15.30;95.50;;;;;;4967517;28;20051;-79
2022/05/19 09:51:01;;;;;;;2.75;1.02;;;14.90;99.00;;;;;;4969422;28;20354;-78
2022/05/19 09:53:30;;;;;;;1.98;0.90;;;14.60;99.90;;;;;;4967695;28;20475;-78
2022/05/19 09:56:02;;;;;;;1.73;1.35;;;14.20;99.90;;;;;;4970990;28;20141;-80
2022/05/19 09:58:32;;;;;;;1.27;1.00;;;14.00;99.90;;;;;;4969339;28;20050;-80
2022/05/19 10:01:04;;;;;;;2.05;1.00;;;13.90;99.90;;;;;;4970694;28;20050;-80
2022/05/19 10:03:37;;;;;;;1.30;0.77;;;14.00;99.90;;;;;;4964835;28;20138;-80
2022/05/19 10:06:07;;;;;;;1.38;0.70;;;14.00;99.90;;;;;;4962259;28;20051;-80
2022/05/19 10:08:38;;;;;;;2.47;1.05;;;14.10;99.90;;;;;;4968757;28;20138;-79
2022/05/19 10:11:13;;;;;;;2.00;0.93;;;14.40;99.90;;;;;;4969766;28;20043;-80
2022/05/19 10:13:44;;;;;;;4.30;1.35;;;14.70;99.90;;;;;;4971740;28;20522;-80
2022/05/19 10:16:18;;;;;;;1.80;1.17;;;15.20;99.90;;;;;;4969588;28;20073;-80
2022/05/19 10:18:57;;;;;;;4.18;1.20;;;15.70;97.60;;;;;;4968075;28;20049;-79
2022/05/19 10:21:39;;;;;;;3.78;1.20;;;16.50;97.20;;;;;;4970128;28;20523;-79
2022/05/19 10:24:24;;;;;;;3.08;1.48;;;17.90;88.80;;;;;;4970768;28;20137;-78
2022/05/19 10:32:56;;;;;;;0.75;0.57;;;21.80;62.20;;;;;;4970733;28;20077;-79
2022/05/19 10:35:34;;;;;;;3.47;0.60;;;22.50;58.20;;;;;;4970982;28;20513;-80
2022/05/19 10:38:27;;;;;;;4.43;0.88;;;23.00;53.70;;;;;;4973731;28;20051;-80
2022/05/19 10:41:05;;;;;;;0.50;0.50;;;23.20;55.00;;;;;;4972419;28;20602;-78
2022/05/19 10:43:52;;;;;;;0.95;0.60;;;22.70;53.50;;;;;;4970662;28;20458;-78
2022/05/19 10:46:27;;;;;;;3.30;1.13;;;21.80;54.00;;;;;;4971213;28;20089;-79
2022/05/19 10:49:12;;;;;;;2.70;0.82;;;21.00;55.40;;;;;;4969921;28;20109;-80
2022/05/19 10:51:54;;;;;;;1.08;0.88;;;20.50;56.60;;;;;;4970501;28;20074;-79
2022/05/19 10:54:35;;;;;;;2.45;0.82;;;20.50;56.50;;;;;;4971847;28;20051;-79
2022/05/19 10:57:36;;;;;;;2.15;0.70;;;20.90;53.10;;;;;;4971442;28;20063;-77
2022/05/19 11:00:17;;;;;;;2.50;0.70;;;21.60;52.50;;;;;;4965084;28;20129;-82
2022/05/19 11:03:14;;;;;;;2.10;0.70;;;21.80;50.70;;;;;;4972717;28;20451;-80
2022/05/19 11:05:50;;;;;;;0.90;0.40;;;21.80;51.60;;;;;;4971574;28;20389;-78
2022/05/19 11:08:41;;;;;;;0.70;0.70;;;21.50;53.10;;;;;;4969079;28;20057;-79
2022/05/19 11:11:17;;;;;;;1.25;0.90;;;21.20;52.20;;;;;;4972125;28;20384;-80
2022/05/19 11:14:00;;;;;;;1.67;0.63;;;21.00;51.30;;;;;;4968137;28;20411;-80
2022/05/19 11:16:39;;;;;;;;;;;20.70;52.40;;;;;;4971982;28;20058;-80
2022/05/19 11:19:15;;;;;;;3.45;0.50;;;20.30;53.00;;;;;;4970550;28;19926;-79
2022/05/19 11:21:47;;;;;;;0.93;0.50;;;20.10;53.60;;;;;;4970593;28;20054;-77
2022/05/19 11:24:22;;;;;;;1.70;0.60;;;20.40;54.00;;;;;;4973094;28;20100;-78
2022/05/19 11:27:00;;;;;;;1.75;0.98;;;20.40;53.50;;;;;;4968878;28;20078;-76
2022/05/19 11:29:43;;;;;;;0.55;0.50;;;20.00;53.50;;;;;;4969267;28;20062;-78
2022/05/19 11:32:20;;;;;;;2.85;0.65;;;19.60;56.20;;;;;;4969104;28;20049;-79
2022/05/19 11:34:52;;;;;;;0.40;0.40;;;19.60;53.70;;;;;;4970803;28;20137;-78
2022/05/19 11:37:30;;;;;;;1.73;0.57;;;19.50;53.50;;;;;;4971103;28;20499;-79
2022/05/19 11:40:11;;;;;;;3.90;0.77;;;19.70;55.30;;;;;;4968393;28;20197;-77
2022/05/19 11:42:45;;;;;;;4.95;0.93;;;20.20;53.00;;;;;;4971988;28;20053;-77
2022/05/19 11:45:17;;;;;;;0.30;0.30;;;20.40;51.80;;;;;;4969194;28;20550;-77
2022/05/19 11:56:31;;;;;;;1.95;0.98;;;20.70;48.60;;;;;;4969625;28;20507;-78
2022/05/19 11:58:59;;;;;;;3.03;0.60;;;21.50;48.60;;;;;;4971002;28;20047;-77
2022/05/19 12:01:37;;;;;;;0.82;0.63;;;22.00;48.40;;;;;;4971775;28;20042;-79
2022/05/19 12:04:12;;;;;;;1.85;0.88;;;21.80;48.80;;;;;;4969499;28;20061;-78
2022/05/19 12:06:47;;;;;;;2.53;0.60;;;21.30;48.60;;;;;;4969514;28;20190;-77
2022/05/19 12:09:27;;;;;;;1.27;1.17;;;21.20;47.90;;;;;;4970537;28;20066;-77
2022/05/19 12:11:59;;;;;;;1.35;0.60;;;20.90;47.50;;;;;;4966940;28;20040;-80
2022/05/19 12:14:47;;;;;;;2.60;1.25;;;20.40;47.00;;;;;;4968696;28;20130;-75
2022/05/19 12:17:31;;;;;;;0.77;0.70;;;19.80;49.50;;;;;;4969366;28;20066;-78
2022/05/19 12:20:03;;;;;;;1.15;1.08;;;19.40;48.90;;;;;;4969532;28;20120;-77
2022/05/19 12:22:33;;;;;;;;;;;19.10;50.30;;;;;;4967268;28;20058;-77
2022/05/19 12:25:16;;;;;;;2.22;0.90;;;18.80;50.50;;;;;;4969030;28;19937;-78
2022/05/19 12:27:55;;;;;;;1.90;1.00;;;18.80;51.80;;;;;;4968062;28;20089;-79
2022/05/19 12:33:24;;;;;;;1.15;0.70;;;21.20;48.70;;;;;;4967345;28;20058;-78
2022/05/19 12:35:59;;;;;;;2.40;0.90;;;22.90;45.20;;;;;;4965277;28;20134;-77
2022/05/19 12:38:35;;;;;;;2.03;1.17;;;23.80;44.30;;;;;;4950530;28;20038;-81
2022/05/19 12:41:06;;;;;;;1.58;0.70;;;24.90;42.00;;;;;;4966076;28;20046;-77
2022/05/19 12:43:39;;;;;;;2.30;0.90;;;25.30;40.10;;;;;;4964599;28;20507;-78
2022/05/19 12:46:13;;;;;;;1.27;0.93;;;25.00;40.00;;;;;;4967717;28;20105;-78
2022/05/19 12:49:13;;;;;;;0.95;0.60;;;25.10;40.90;;;;;;4965999;28;20043;-78
2022/05/19 12:51:57;;;;;;;1.98;0.85;;;25.70;39.60;;;;;;4965018;28;20496;-77
2022/05/19 12:54:30;;;;;;;2.90;0.70;;;27.10;37.60;;;;;;4968113;28;20058;-78
2022/05/19 12:57:31;;;;;;;2.88;0.68;;;27.90;37.90;;;;;;4982007;28;20273;-77
2022/05/19 13:00:07;;;;;;;1.08;0.98;;;28.50;35.70;;;;;;4962564;28;20106;-79
2022/05/19 13:02:41;;;;;;;2.83;0.80;;;28.50;35.00;;;;;;4966143;28;20066;-77
2022/05/19 13:05:22;;;;;;;2.78;0.75;;;28.80;35.70;;;;;;4967821;28;20454;-77
2022/05/19 13:07:58;;;;;;;3.35;0.90;;;29.00;34.90;;;;;;4966745;28;20515;-77
2022/05/19 13:10:43;;;;;;;2.20;1.00;;;29.20;35.00;;;;;;4961858;28;20059;-79
2022/05/19 13:13:46;;;;;;;2.10;0.82;;;29.40;35.40;;;;;;4964991;28;20085;-78
2022/05/19 13:16:34;;;;;;;2.10;1.55;;;29.80;34.70;;;;;;4970614;28;20196;-80
2022/05/19 13:19:05;;;;;;;1.70;1.10;;;30.20;34.30;;;;;;4967219;28;20054;-80
2022/05/19 13:21:38;;;;;;;3.65;0.90;;;30.40;33.60;;;;;;4968019;28;20066;-77
2022/05/19 13:24:10;;;;;;;1.38;1.10;;;30.70;33.10;;;;;;4969338;28;20065;-77
2022/05/19 13:32:37;;;;;;;1.10;1.00;;;30.50;33.00;;;;;;4908057;29;20075;-76
2022/05/19 13:35:08;;;;;;;1.43;0.77;;;30.60;32.70;;;;;;4963714;28;20183;-77
2022/05/19 13:37:37;;;;;;;2.13;1.27;;;30.70;33.30;;;;;;4965655;28;20138;-78
2022/05/19 13:40:18;;;;;;;1.23;1.10;;;30.70;32.80;;;;;;4967300;28;20051;-77
2022/05/19 13:42:52;;;;;;;0.98;0.90;;;30.70;32.50;;;;;;4966175;28;20163;-77
2022/05/19 13:45:22;;;;;;;2.70;1.85;;;30.50;32.70;;;;;;4968567;28;20399;-77